sensor_id;sensor_type;location;lat;lon;timestamp;P1;durP1;ratioP1;P2;durP2;ratioP2
31284;SDS011;56605;51.516;6.742;2022-11-20T00:00:27;28.33;;;14.40;;
31284;SDS011;56605;51.516;6.742;2022-11-20T00:02:52;30.93;;;15.77;;
31284;SDS011;56605;51.516;6.742;2022-11-20T00:05:17;25.63;;;13.27;;
31284;SDS011;56605;51.516;6.742;2022-11-20T00:07:43;27.67;;;14.20;;
31284;SDS011;56605;51.516;6.742;2022-11-20T00:10:08;25.53;;;14.07;;
31284;SDS011;56605;51.516;6.742;2022-11-20T00:12:34;24.73;;;13.20;;
31284;SDS011;56605;51.516;6.742;2022-11-20T00:14:59;24.47;;;12.70;;
31284;SDS011;56605;51.516;6.742;2022-11-20T00:17:24;24.00;;;13.70;;
31284;SDS011;56605;51.516;6.742;2022-11-20T00:19:50;24.90;;;14.13;;
31284;SDS011;56605;51.516;6.742;2022-11-20T00:22:15;23.90;;;12.87;;
31284;SDS011;56605;51.516;6.742;2022-11-20T00:24:40;28.77;;;14.77;;
31284;SDS011;56605;51.516;6.742;2022-11-20T00:27:06;33.17;;;15.47;;
31284;SDS011;56605;51.516;6.742;2022-11-20T00:29:31;36.97;;;19.53;;
31284;SDS011;56605;51.516;6.742;2022-11-20T00:31:56;31.53;;;17.10;;
31284;SDS011;56605;51.516;6.742;2022-11-20T00:34:21;33.47;;;18.83;;
31284;SDS011;56605;51.516;6.742;2022-11-20T00:36:47;37.43;;;20.93;;
31284;SDS011;56605;51.516;6.742;2022-11-20T00:39:12;40.37;;;22.37;;
31284;SDS011;56605;51.516;6.742;2022-11-20T00:41:38;39.97;;;23.30;;
31284;SDS011;56605;51.516;6.742;2022-11-20T00:44:03;40.83;;;23.10;;
31284;SDS011;56605;51.516;6.742;2022-11-20T00:46:28;37.73;;;23.37;;
31284;SDS011;56605;51.516;6.742;2022-11-20T00:48:54;41.87;;;24.23;;
31284;SDS011;56605;51.516;6.742;2022-11-20T00:51:21;41.20;;;23.07;;
31284;SDS011;56605;51.516;6.742;2022-11-20T00:53:48;39.63;;;21.37;;
31284;SDS011;56605;51.516;6.742;2022-11-20T00:56:14;36.80;;;20.20;;
31284;SDS011;56605;51.516;6.742;2022-11-20T00:58:42;39.90;;;20.37;;
31284;SDS011;56605;51.516;6.742;2022-11-20T01:01:09;36.57;;;18.97;;
31284;SDS011;56605;51.516;6.742;2022-11-20T01:03:38;36.77;;;19.90;;
31284;SDS011;56605;51.516;6.742;2022-11-20T01:06:09;34.77;;;17.90;;
31284;SDS011;56605;51.516;6.742;2022-11-20T01:08:36;39.17;;;18.67;;
31284;SDS011;56605;51.516;6.742;2022-11-20T01:11:03;32.73;;;17.63;;
31284;SDS011;56605;51.516;6.742;2022-11-20T01:13:34;28.80;;;16.33;;
31284;SDS011;56605;51.516;6.742;2022-11-20T01:16:22;34.17;;;17.63;;
31284;SDS011;56605;51.516;6.742;2022-11-20T01:18:50;29.70;;;16.67;;
31284;SDS011;56605;51.516;6.742;2022-11-20T01:21:18;33.60;;;16.67;;
31284;SDS011;56605;51.516;6.742;2022-11-20T01:23:45;29.40;;;15.70;;
31284;SDS011;56605;51.516;6.742;2022-11-20T01:26:13;27.17;;;15.67;;
31284;SDS011;56605;51.516;6.742;2022-11-20T01:28:43;31.13;;;15.80;;
31284;SDS011;56605;51.516;6.742;2022-11-20T01:31:13;30.60;;;16.43;;
31284;SDS011;56605;51.516;6.742;2022-11-20T01:33:47;29.43;;;15.70;;
31284;SDS011;56605;51.516;6.742;2022-11-20T01:36:14;30.87;;;16.03;;
31284;SDS011;56605;51.516;6.742;2022-11-20T01:38:40;31.20;;;15.63;;
31284;SDS011;56605;51.516;6.742;2022-11-20T01:41:06;30.13;;;16.10;;
31284;SDS011;56605;51.516;6.742;2022-11-20T01:43:32;30.43;;;15.60;;
31284;SDS011;56605;51.516;6.742;2022-11-20T01:45:59;32.67;;;15.43;;
31284;SDS011;56605;51.516;6.742;2022-11-20T01:48:41;27.63;;;14.00;;
31284;SDS011;56605;51.516;6.742;2022-11-20T01:51:20;28.40;;;14.87;;
31284;SDS011;56605;51.516;6.742;2022-11-20T01:54:11;29.70;;;16.17;;
31284;SDS011;56605;51.516;6.742;2022-11-20T01:56:41;32.03;;;14.97;;
31284;SDS011;56605;51.516;6.742;2022-11-20T01:59:09;30.77;;;13.67;;
31284;SDS011;56605;51.516;6.742;2022-11-20T02:01:38;30.63;;;14.43;;
31284;SDS011;56605;51.516;6.742;2022-11-20T02:04:04;30.40;;;15.40;;
31284;SDS011;56605;51.516;6.742;2022-11-20T02:07:12;25.03;;;14.27;;
31284;SDS011;56605;51.516;6.742;2022-11-20T02:09:23;27.67;;;15.27;;
31284;SDS011;56605;51.516;6.742;2022-11-20T02:11:49;29.60;;;14.50;;
31284;SDS011;56605;51.516;6.742;2022-11-20T02:14:14;34.27;;;15.63;;
31284;SDS011;56605;51.516;6.742;2022-11-20T02:16:40;30.37;;;15.67;;
31284;SDS011;56605;51.516;6.742;2022-11-20T02:19:13;31.70;;;14.83;;
31284;SDS011;56605;51.516;6.742;2022-11-20T02:22:05;31.43;;;15.17;;
31284;SDS011;56605;51.516;6.742;2022-11-20T02:24:39;27.10;;;14.93;;
31284;SDS011;56605;51.516;6.742;2022-11-20T02:27:07;28.23;;;15.00;;
31284;SDS011;56605;51.516;6.742;2022-11-20T02:29:46;29.23;;;15.03;;
31284;SDS011;56605;51.516;6.742;2022-11-20T02:34:45;28.73;;;16.13;;
31284;SDS011;56605;51.516;6.742;2022-11-20T02:37:10;34.03;;;15.30;;
31284;SDS011;56605;51.516;6.742;2022-11-20T02:39:35;29.83;;;15.47;;
31284;SDS011;56605;51.516;6.742;2022-11-20T02:42:01;32.23;;;15.90;;
31284;SDS011;56605;51.516;6.742;2022-11-20T02:44:27;29.17;;;16.33;;
31284;SDS011;56605;51.516;6.742;2022-11-20T02:46:52;26.93;;;14.97;;
31284;SDS011;56605;51.516;6.742;2022-11-20T02:49:17;25.43;;;14.07;;
31284;SDS011;56605;51.516;6.742;2022-11-20T02:51:43;28.30;;;14.83;;
31284;SDS011;56605;51.516;6.742;2022-11-20T02:54:08;29.53;;;15.70;;
31284;SDS011;56605;51.516;6.742;2022-11-20T02:56:34;27.90;;;15.63;;
31284;SDS011;56605;51.516;6.742;2022-11-20T02:58:59;27.63;;;15.13;;
31284;SDS011;56605;51.516;6.742;2022-11-20T03:01:24;37.00;;;16.07;;
31284;SDS011;56605;51.516;6.742;2022-11-20T03:03:49;31.47;;;16.00;;
31284;SDS011;56605;51.516;6.742;2022-11-20T03:06:15;30.73;;;15.40;;
31284;SDS011;56605;51.516;6.742;2022-11-20T03:08:41;32.23;;;16.47;;
31284;SDS011;56605;51.516;6.742;2022-11-20T03:11:07;35.30;;;16.07;;
31284;SDS011;56605;51.516;6.742;2022-11-20T03:13:34;29.90;;;15.70;;
31284;SDS011;56605;51.516;6.742;2022-11-20T03:16:06;31.57;;;15.90;;
31284;SDS011;56605;51.516;6.742;2022-11-20T03:18:33;25.00;;;13.50;;
31284;SDS011;56605;51.516;6.742;2022-11-20T03:20:59;29.50;;;15.37;;
31284;SDS011;56605;51.516;6.742;2022-11-20T03:23:24;26.23;;;13.90;;
31284;SDS011;56605;51.516;6.742;2022-11-20T03:25:49;28.30;;;15.17;;
31284;SDS011;56605;51.516;6.742;2022-11-20T03:28:15;28.47;;;14.13;;
31284;SDS011;56605;51.516;6.742;2022-11-20T03:30:40;30.90;;;15.70;;
31284;SDS011;56605;51.516;6.742;2022-11-20T03:33:05;27.83;;;15.67;;
31284;SDS011;56605;51.516;6.742;2022-11-20T03:35:31;28.67;;;14.90;;
31284;SDS011;56605;51.516;6.742;2022-11-20T03:37:57;26.00;;;14.47;;
31284;SDS011;56605;51.516;6.742;2022-11-20T03:40:22;31.17;;;15.97;;
31284;SDS011;56605;51.516;6.742;2022-11-20T03:42:47;24.60;;;13.23;;
31284;SDS011;56605;51.516;6.742;2022-11-20T03:45:16;26.73;;;14.37;;
31284;SDS011;56605;51.516;6.742;2022-11-20T03:47:43;27.47;;;14.03;;
31284;SDS011;56605;51.516;6.742;2022-11-20T03:50:09;27.57;;;13.87;;
31284;SDS011;56605;51.516;6.742;2022-11-20T03:52:37;32.73;;;14.87;;
31284;SDS011;56605;51.516;6.742;2022-11-20T03:55:03;28.67;;;13.97;;
31284;SDS011;56605;51.516;6.742;2022-11-20T03:57:29;30.63;;;13.73;;
31284;SDS011;56605;51.516;6.742;2022-11-20T03:59:54;24.90;;;14.33;;
31284;SDS011;56605;51.516;6.742;2022-11-20T04:02:19;29.63;;;15.13;;
31284;SDS011;56605;51.516;6.742;2022-11-20T04:04:45;29.83;;;16.27;;
31284;SDS011;56605;51.516;6.742;2022-11-20T04:07:10;28.40;;;15.13;;
31284;SDS011;56605;51.516;6.742;2022-11-20T04:09:35;32.13;;;15.10;;
31284;SDS011;56605;51.516;6.742;2022-11-20T04:12:01;34.93;;;16.50;;
31284;SDS011;56605;51.516;6.742;2022-11-20T04:14:26;32.90;;;14.57;;
31284;SDS011;56605;51.516;6.742;2022-11-20T04:16:51;29.13;;;15.40;;
31284;SDS011;56605;51.516;6.742;2022-11-20T04:19:16;30.77;;;13.43;;
31284;SDS011;56605;51.516;6.742;2022-11-20T04:21:42;24.03;;;14.17;;
31284;SDS011;56605;51.516;6.742;2022-11-20T04:24:08;28.17;;;14.50;;
31284;SDS011;56605;51.516;6.742;2022-11-20T04:26:35;23.63;;;14.77;;
31284;SDS011;56605;51.516;6.742;2022-11-20T04:29:00;31.37;;;14.80;;
31284;SDS011;56605;51.516;6.742;2022-11-20T04:31:31;27.43;;;14.53;;
31284;SDS011;56605;51.516;6.742;2022-11-20T04:34:04;27.20;;;14.60;;
31284;SDS011;56605;51.516;6.742;2022-11-20T04:36:31;29.07;;;14.47;;
31284;SDS011;56605;51.516;6.742;2022-11-20T04:38:58;31.43;;;15.53;;
31284;SDS011;56605;51.516;6.742;2022-11-20T04:41:25;29.30;;;15.03;;
31284;SDS011;56605;51.516;6.742;2022-11-20T04:43:54;27.47;;;14.90;;
31284;SDS011;56605;51.516;6.742;2022-11-20T04:46:26;31.43;;;16.30;;
31284;SDS011;56605;51.516;6.742;2022-11-20T04:48:52;27.27;;;14.00;;
31284;SDS011;56605;51.516;6.742;2022-11-20T04:51:18;32.53;;;17.17;;
31284;SDS011;56605;51.516;6.742;2022-11-20T04:53:43;33.53;;;15.27;;
31284;SDS011;56605;51.516;6.742;2022-11-20T04:56:09;30.80;;;16.27;;
31284;SDS011;56605;51.516;6.742;2022-11-20T04:58:36;29.27;;;14.70;;
31284;SDS011;56605;51.516;6.742;2022-11-20T05:01:03;29.23;;;14.57;;
31284;SDS011;56605;51.516;6.742;2022-11-20T05:03:30;32.37;;;15.03;;
31284;SDS011;56605;51.516;6.742;2022-11-20T05:05:55;28.87;;;14.47;;
31284;SDS011;56605;51.516;6.742;2022-11-20T05:08:21;28.10;;;15.63;;
31284;SDS011;56605;51.516;6.742;2022-11-20T05:10:46;27.67;;;15.23;;
31284;SDS011;56605;51.516;6.742;2022-11-20T05:13:12;28.87;;;15.60;;
31284;SDS011;56605;51.516;6.742;2022-11-20T05:15:37;25.27;;;14.40;;
31284;SDS011;56605;51.516;6.742;2022-11-20T05:18:03;26.77;;;14.43;;
31284;SDS011;56605;51.516;6.742;2022-11-20T05:20:28;30.37;;;14.20;;
31284;SDS011;56605;51.516;6.742;2022-11-20T05:22:56;27.20;;;15.33;;
31284;SDS011;56605;51.516;6.742;2022-11-20T05:25:22;24.53;;;13.67;;
31284;SDS011;56605;51.516;6.742;2022-11-20T05:27:47;29.43;;;14.43;;
31284;SDS011;56605;51.516;6.742;2022-11-20T05:30:13;29.83;;;15.40;;
31284;SDS011;56605;51.516;6.742;2022-11-20T05:32:38;31.63;;;14.53;;
31284;SDS011;56605;51.516;6.742;2022-11-20T05:35:04;29.13;;;14.37;;
31284;SDS011;56605;51.516;6.742;2022-11-20T05:37:29;26.70;;;13.73;;
31284;SDS011;56605;51.516;6.742;2022-11-20T05:39:54;28.30;;;15.60;;
31284;SDS011;56605;51.516;6.742;2022-11-20T05:42:20;24.57;;;13.93;;
31284;SDS011;56605;51.516;6.742;2022-11-20T05:45:01;26.73;;;12.73;;
31284;SDS011;56605;51.516;6.742;2022-11-20T05:47:28;30.13;;;14.70;;
31284;SDS011;56605;51.516;6.742;2022-11-20T05:49:57;28.30;;;14.33;;
31284;SDS011;56605;51.516;6.742;2022-11-20T05:52:22;30.07;;;14.73;;
31284;SDS011;56605;51.516;6.742;2022-11-20T05:54:47;28.60;;;15.33;;
31284;SDS011;56605;51.516;6.742;2022-11-20T05:57:13;30.83;;;15.30;;
31284;SDS011;56605;51.516;6.742;2022-11-20T05:59:38;27.53;;;15.03;;
31284;SDS011;56605;51.516;6.742;2022-11-20T06:02:03;27.53;;;15.63;;
31284;SDS011;56605;51.516;6.742;2022-11-20T06:04:28;30.10;;;15.17;;
31284;SDS011;56605;51.516;6.742;2022-11-20T06:06:54;26.93;;;13.87;;
31284;SDS011;56605;51.516;6.742;2022-11-20T06:09:19;32.20;;;15.40;;
31284;SDS011;56605;51.516;6.742;2022-11-20T06:11:44;29.70;;;14.53;;
31284;SDS011;56605;51.516;6.742;2022-11-20T06:14:10;34.27;;;16.07;;
31284;SDS011;56605;51.516;6.742;2022-11-20T06:16:35;29.20;;;14.83;;
31284;SDS011;56605;51.516;6.742;2022-11-20T06:19:00;30.33;;;15.77;;
31284;SDS011;56605;51.516;6.742;2022-11-20T06:21:26;30.97;;;15.37;;
31284;SDS011;56605;51.516;6.742;2022-11-20T06:23:51;35.03;;;17.57;;
31284;SDS011;56605;51.516;6.742;2022-11-20T06:26:19;30.33;;;16.60;;
31284;SDS011;56605;51.516;6.742;2022-11-20T06:28:46;30.07;;;15.83;;
31284;SDS011;56605;51.516;6.742;2022-11-20T06:31:13;31.77;;;16.57;;
31284;SDS011;56605;51.516;6.742;2022-11-20T06:33:40;31.77;;;16.13;;
31284;SDS011;56605;51.516;6.742;2022-11-20T06:36:05;31.90;;;16.80;;
31284;SDS011;56605;51.516;6.742;2022-11-20T06:38:31;31.77;;;15.67;;
31284;SDS011;56605;51.516;6.742;2022-11-20T06:40:56;31.73;;;16.17;;
31284;SDS011;56605;51.516;6.742;2022-11-20T06:43:22;34.40;;;16.47;;
31284;SDS011;56605;51.516;6.742;2022-11-20T06:45:54;30.57;;;16.57;;
31284;SDS011;56605;51.516;6.742;2022-11-20T06:48:20;29.90;;;16.17;;
31284;SDS011;56605;51.516;6.742;2022-11-20T06:50:46;33.70;;;16.17;;
31284;SDS011;56605;51.516;6.742;2022-11-20T06:53:12;37.27;;;16.67;;
31284;SDS011;56605;51.516;6.742;2022-11-20T06:55:41;35.70;;;16.60;;
31284;SDS011;56605;51.516;6.742;2022-11-20T06:58:10;34.43;;;16.30;;
31284;SDS011;56605;51.516;6.742;2022-11-20T07:00:36;35.40;;;16.63;;
31284;SDS011;56605;51.516;6.742;2022-11-20T07:03:04;34.53;;;16.63;;
31284;SDS011;56605;51.516;6.742;2022-11-20T07:05:30;30.47;;;16.60;;
31284;SDS011;56605;51.516;6.742;2022-11-20T07:07:56;33.47;;;16.63;;
31284;SDS011;56605;51.516;6.742;2022-11-20T07:10:22;31.90;;;16.40;;
31284;SDS011;56605;51.516;6.742;2022-11-20T07:12:52;33.73;;;16.83;;
31284;SDS011;56605;51.516;6.742;2022-11-20T07:15:18;30.83;;;16.50;;
31284;SDS011;56605;51.516;6.742;2022-11-20T07:17:44;28.77;;;16.27;;
31284;SDS011;56605;51.516;6.742;2022-11-20T07:20:10;32.97;;;17.53;;
31284;SDS011;56605;51.516;6.742;2022-11-20T07:22:36;36.83;;;18.53;;
31284;SDS011;56605;51.516;6.742;2022-11-20T07:25:01;33.03;;;16.97;;
31284;SDS011;56605;51.516;6.742;2022-11-20T07:27:27;32.27;;;16.07;;
31284;SDS011;56605;51.516;6.742;2022-11-20T07:29:53;35.70;;;17.27;;
31284;SDS011;56605;51.516;6.742;2022-11-20T07:32:18;33.60;;;18.07;;
31284;SDS011;56605;51.516;6.742;2022-11-20T07:34:43;31.77;;;16.57;;
31284;SDS011;56605;51.516;6.742;2022-11-20T07:37:09;31.27;;;17.63;;
31284;SDS011;56605;51.516;6.742;2022-11-20T07:39:34;34.40;;;17.03;;
31284;SDS011;56605;51.516;6.742;2022-11-20T07:41:59;30.50;;;16.93;;
31284;SDS011;56605;51.516;6.742;2022-11-20T07:44:24;33.80;;;17.20;;
31284;SDS011;56605;51.516;6.742;2022-11-20T07:46:50;35.53;;;17.47;;
31284;SDS011;56605;51.516;6.742;2022-11-20T07:49:15;33.70;;;17.47;;
31284;SDS011;56605;51.516;6.742;2022-11-20T07:51:40;40.23;;;19.03;;
31284;SDS011;56605;51.516;6.742;2022-11-20T07:54:05;33.27;;;19.53;;
31284;SDS011;56605;51.516;6.742;2022-11-20T07:56:31;33.97;;;17.37;;
31284;SDS011;56605;51.516;6.742;2022-11-20T07:58:56;35.27;;;18.70;;
31284;SDS011;56605;51.516;6.742;2022-11-20T08:01:21;35.57;;;18.90;;
31284;SDS011;56605;51.516;6.742;2022-11-20T08:03:46;36.97;;;18.47;;
31284;SDS011;56605;51.516;6.742;2022-11-20T08:06:12;29.53;;;16.10;;
31284;SDS011;56605;51.516;6.742;2022-11-20T08:08:37;36.17;;;18.03;;
31284;SDS011;56605;51.516;6.742;2022-11-20T08:11:04;32.07;;;17.63;;
31284;SDS011;56605;51.516;6.742;2022-11-20T08:13:48;37.10;;;18.43;;
31284;SDS011;56605;51.516;6.742;2022-11-20T08:16:32;35.87;;;18.27;;
31284;SDS011;56605;51.516;6.742;2022-11-20T08:18:58;36.40;;;17.67;;
31284;SDS011;56605;51.516;6.742;2022-11-20T08:21:23;40.50;;;19.53;;
31284;SDS011;56605;51.516;6.742;2022-11-20T08:23:48;35.23;;;18.03;;
31284;SDS011;56605;51.516;6.742;2022-11-20T08:26:14;34.63;;;17.97;;
31284;SDS011;56605;51.516;6.742;2022-11-20T08:28:39;38.77;;;20.07;;
31284;SDS011;56605;51.516;6.742;2022-11-20T08:31:04;35.17;;;17.57;;
31284;SDS011;56605;51.516;6.742;2022-11-20T08:33:30;30.87;;;17.70;;
31284;SDS011;56605;51.516;6.742;2022-11-20T08:36:00;35.43;;;19.13;;
31284;SDS011;56605;51.516;6.742;2022-11-20T08:38:27;36.00;;;18.90;;
31284;SDS011;56605;51.516;6.742;2022-11-20T08:40:57;34.17;;;17.57;;
31284;SDS011;56605;51.516;6.742;2022-11-20T08:43:44;37.37;;;18.83;;
31284;SDS011;56605;51.516;6.742;2022-11-20T08:46:09;34.90;;;18.03;;
31284;SDS011;56605;51.516;6.742;2022-11-20T08:48:35;38.47;;;19.23;;
31284;SDS011;56605;51.516;6.742;2022-11-20T08:51:00;34.20;;;18.70;;
31284;SDS011;56605;51.516;6.742;2022-11-20T08:53:26;34.07;;;18.00;;
31284;SDS011;56605;51.516;6.742;2022-11-20T08:55:52;36.77;;;20.20;;
31284;SDS011;56605;51.516;6.742;2022-11-20T08:58:17;44.03;;;21.60;;
31284;SDS011;56605;51.516;6.742;2022-11-20T09:00:42;46.23;;;23.37;;
31284;SDS011;56605;51.516;6.742;2022-11-20T09:03:08;41.83;;;21.83;;
31284;SDS011;56605;51.516;6.742;2022-11-20T09:05:33;39.70;;;22.73;;
31284;SDS011;56605;51.516;6.742;2022-11-20T09:07:59;44.67;;;22.07;;
31284;SDS011;56605;51.516;6.742;2022-11-20T09:10:25;42.37;;;23.60;;
31284;SDS011;56605;51.516;6.742;2022-11-20T09:12:51;43.47;;;22.33;;
31284;SDS011;56605;51.516;6.742;2022-11-20T09:15:17;37.63;;;20.53;;
31284;SDS011;56605;51.516;6.742;2022-11-20T09:17:49;38.73;;;21.77;;
31284;SDS011;56605;51.516;6.742;2022-11-20T09:20:18;43.50;;;26.30;;
31284;SDS011;56605;51.516;6.742;2022-11-20T09:22:44;36.73;;;20.83;;
31284;SDS011;56605;51.516;6.742;2022-11-20T09:25:09;41.73;;;22.77;;
31284;SDS011;56605;51.516;6.742;2022-11-20T09:27:35;42.10;;;21.53;;
31284;SDS011;56605;51.516;6.742;2022-11-20T09:30:00;38.53;;;21.30;;
31284;SDS011;56605;51.516;6.742;2022-11-20T09:32:26;40.50;;;21.80;;
31284;SDS011;56605;51.516;6.742;2022-11-20T09:34:51;40.10;;;21.43;;
31284;SDS011;56605;51.516;6.742;2022-11-20T09:37:16;42.43;;;23.00;;
31284;SDS011;56605;51.516;6.742;2022-11-20T09:39:42;43.73;;;23.27;;
31284;SDS011;56605;51.516;6.742;2022-11-20T09:45:06;38.37;;;20.43;;
31284;SDS011;56605;51.516;6.742;2022-11-20T09:56:00;38.10;;;21.60;;
31284;SDS011;56605;51.516;6.742;2022-11-20T10:01:08;43.37;;;21.73;;
31284;SDS011;56605;51.516;6.742;2022-11-20T10:03:38;45.37;;;21.07;;
31284;SDS011;56605;51.516;6.742;2022-11-20T10:06:15;38.33;;;21.70;;
31284;SDS011;56605;51.516;6.742;2022-11-20T10:08:53;39.20;;;22.53;;
31284;SDS011;56605;51.516;6.742;2022-11-20T10:11:43;37.27;;;21.30;;
31284;SDS011;56605;51.516;6.742;2022-11-20T10:19:44;40.23;;;21.83;;
31284;SDS011;56605;51.516;6.742;2022-11-20T10:27:45;35.07;;;20.97;;
31284;SDS011;56605;51.516;6.742;2022-11-20T10:30:20;43.70;;;22.47;;
31284;SDS011;56605;51.516;6.742;2022-11-20T10:32:50;32.87;;;18.70;;
31284;SDS011;56605;51.516;6.742;2022-11-20T10:35:33;31.63;;;17.20;;
31284;SDS011;56605;51.516;6.742;2022-11-20T10:38:05;32.87;;;17.27;;
31284;SDS011;56605;51.516;6.742;2022-11-20T10:40:43;28.87;;;17.50;;
31284;SDS011;56605;51.516;6.742;2022-11-20T10:43:17;33.57;;;15.33;;
31284;SDS011;56605;51.516;6.742;2022-11-20T10:48:27;26.60;;;14.98;;
31284;SDS011;56605;51.516;6.742;2022-11-20T10:51:03;32.63;;;14.65;;
31284;SDS011;56605;51.516;6.742;2022-11-20T10:56:41;26.90;;;13.25;;
31284;SDS011;56605;51.516;6.742;2022-11-20T11:01:58;24.05;;;13.55;;
31284;SDS011;56605;51.516;6.742;2022-11-20T11:06:58;32.22;;;16.58;;
31284;SDS011;56605;51.516;6.742;2022-11-20T11:09:34;35.97;;;15.52;;
31284;SDS011;56605;51.516;6.742;2022-11-20T11:12:10;28.10;;;14.15;;
31284;SDS011;56605;51.516;6.742;2022-11-20T11:14:49;34.88;;;17.00;;
31284;SDS011;56605;51.516;6.742;2022-11-20T11:22:30;33.10;;;15.32;;
31284;SDS011;56605;51.516;6.742;2022-11-20T11:24:57;34.13;;;17.13;;
31284;SDS011;56605;51.516;6.742;2022-11-20T11:27:23;31.65;;;14.88;;
31284;SDS011;56605;51.516;6.742;2022-11-20T11:29:48;33.75;;;16.33;;
31284;SDS011;56605;51.516;6.742;2022-11-20T11:32:14;34.25;;;16.42;;
31284;SDS011;56605;51.516;6.742;2022-11-20T11:34:42;38.67;;;19.40;;
31284;SDS011;56605;51.516;6.742;2022-11-20T11:37:18;38.65;;;16.80;;
31284;SDS011;56605;51.516;6.742;2022-11-20T11:39:46;37.03;;;19.13;;
31284;SDS011;56605;51.516;6.742;2022-11-20T11:42:15;34.50;;;17.30;;
31284;SDS011;56605;51.516;6.742;2022-11-20T11:44:46;29.88;;;14.80;;
31284;SDS011;56605;51.516;6.742;2022-11-20T11:55:46;33.92;;;16.73;;
31284;SDS011;56605;51.516;6.742;2022-11-20T12:01:41;26.77;;;13.57;;
31284;SDS011;56605;51.516;6.742;2022-11-20T12:04:04;33.70;;;16.67;;
31284;SDS011;56605;51.516;6.742;2022-11-20T12:06:36;24.80;;;12.60;;
31284;SDS011;56605;51.516;6.742;2022-11-20T12:09:05;29.83;;;12.93;;
31284;SDS011;56605;51.516;6.742;2022-11-20T12:11:43;24.08;;;11.82;;
31284;SDS011;56605;51.516;6.742;2022-11-20T12:17:01;30.73;;;14.77;;
31284;SDS011;56605;51.516;6.742;2022-11-20T12:19:29;30.92;;;14.98;;
31284;SDS011;56605;51.516;6.742;2022-11-20T12:24:53;22.08;;;11.48;;
31284;SDS011;56605;51.516;6.742;2022-11-20T12:30:22;32.90;;;14.57;;
31284;SDS011;56605;51.516;6.742;2022-11-20T12:43:32;20.17;;;10.90;;
31284;SDS011;56605;51.516;6.742;2022-11-20T12:51:58;28.35;;;13.48;;
31284;SDS011;56605;51.516;6.742;2022-11-20T12:54:36;27.25;;;12.75;;
31284;SDS011;56605;51.516;6.742;2022-11-20T12:57:26;28.13;;;13.50;;
31284;SDS011;56605;51.516;6.742;2022-11-20T13:05:15;28.55;;;12.85;;
31284;SDS011;56605;51.516;6.742;2022-11-20T13:08:01;23.17;;;10.73;;
31284;SDS011;56605;51.516;6.742;2022-11-20T13:10:43;27.05;;;13.10;;
31284;SDS011;56605;51.516;6.742;2022-11-20T13:13:22;27.85;;;12.75;;
31284;SDS011;56605;51.516;6.742;2022-11-20T13:15:54;26.85;;;12.40;;
31284;SDS011;56605;51.516;6.742;2022-11-20T13:18:26;22.52;;;11.57;;
31284;SDS011;56605;51.516;6.742;2022-11-20T13:20:53;23.80;;;11.88;;
31284;SDS011;56605;51.516;6.742;2022-11-20T13:23:25;24.80;;;12.02;;
31284;SDS011;56605;51.516;6.742;2022-11-20T13:28:42;24.27;;;13.15;;
31284;SDS011;56605;51.516;6.742;2022-11-20T13:31:23;28.02;;;11.63;;
31284;SDS011;56605;51.516;6.742;2022-11-20T13:33:55;20.75;;;11.30;;
31284;SDS011;56605;51.516;6.742;2022-11-20T13:36:24;26.23;;;13.00;;
31284;SDS011;56605;51.516;6.742;2022-11-20T13:39:00;28.15;;;12.68;;
31284;SDS011;56605;51.516;6.742;2022-11-20T13:41:35;18.17;;;9.25;;
31284;SDS011;56605;51.516;6.742;2022-11-20T13:44:09;39.13;;;16.83;;
31284;SDS011;56605;51.516;6.742;2022-11-20T13:46:48;28.47;;;12.50;;
31284;SDS011;56605;51.516;6.742;2022-11-20T13:49:18;29.42;;;13.50;;
31284;SDS011;56605;51.516;6.742;2022-11-20T13:51:59;31.30;;;13.85;;
31284;SDS011;56605;51.516;6.742;2022-11-20T13:54:45;25.47;;;13.60;;
31284;SDS011;56605;51.516;6.742;2022-11-20T14:00:24;28.10;;;13.30;;
31284;SDS011;56605;51.516;6.742;2022-11-20T14:05:31;36.07;;;16.73;;
31284;SDS011;56605;51.516;6.742;2022-11-20T14:08:00;37.65;;;15.63;;
31284;SDS011;56605;51.516;6.742;2022-11-20T14:10:30;33.47;;;16.58;;
31284;SDS011;56605;51.516;6.742;2022-11-20T14:12:55;31.13;;;15.83;;
31284;SDS011;56605;51.516;6.742;2022-11-20T14:15:31;33.13;;;16.47;;
31284;SDS011;56605;51.516;6.742;2022-11-20T14:17:58;30.93;;;15.20;;
31284;SDS011;56605;51.516;6.742;2022-11-20T14:20:26;39.92;;;17.92;;
31284;SDS011;56605;51.516;6.742;2022-11-20T14:22:54;35.28;;;17.67;;
31284;SDS011;56605;51.516;6.742;2022-11-20T14:25:21;36.42;;;19.15;;
31284;SDS011;56605;51.516;6.742;2022-11-20T14:27:58;41.10;;;18.93;;
31284;SDS011;56605;51.516;6.742;2022-11-20T14:30:26;43.50;;;17.93;;
31284;SDS011;56605;51.516;6.742;2022-11-20T14:32:54;41.38;;;19.45;;
31284;SDS011;56605;51.516;6.742;2022-11-20T14:35:27;37.67;;;19.17;;
31284;SDS011;56605;51.516;6.742;2022-11-20T14:37:56;38.63;;;19.00;;
31284;SDS011;56605;51.516;6.742;2022-11-20T14:42:56;46.33;;;18.75;;
31284;SDS011;56605;51.516;6.742;2022-11-20T14:45:22;38.87;;;17.30;;
31284;SDS011;56605;51.516;6.742;2022-11-20T14:47:48;39.53;;;16.33;;
31284;SDS011;56605;51.516;6.742;2022-11-20T14:50:19;37.27;;;17.63;;
31284;SDS011;56605;51.516;6.742;2022-11-20T14:52:56;40.85;;;19.20;;
31284;SDS011;56605;51.516;6.742;2022-11-20T14:55:33;40.70;;;17.38;;
31284;SDS011;56605;51.516;6.742;2022-11-20T14:58:19;48.83;;;20.90;;
31284;SDS011;56605;51.516;6.742;2022-11-20T15:00:56;44.95;;;19.75;;
31284;SDS011;56605;51.516;6.742;2022-11-20T15:03:33;39.20;;;17.65;;
31284;SDS011;56605;51.516;6.742;2022-11-20T15:06:00;39.42;;;19.42;;
31284;SDS011;56605;51.516;6.742;2022-11-20T15:08:25;42.13;;;20.13;;
31284;SDS011;56605;51.516;6.742;2022-11-20T15:10:51;37.92;;;20.52;;
31284;SDS011;56605;51.516;6.742;2022-11-20T15:13:37;41.90;;;20.75;;
31284;SDS011;56605;51.516;6.742;2022-11-20T15:16:08;46.63;;;20.98;;
31284;SDS011;56605;51.516;6.742;2022-11-20T15:18:42;36.40;;;18.60;;
31284;SDS011;56605;51.516;6.742;2022-11-20T15:21:11;47.08;;;21.65;;
31284;SDS011;56605;51.516;6.742;2022-11-20T15:23:38;43.10;;;20.30;;
31284;SDS011;56605;51.516;6.742;2022-11-20T15:26:04;41.37;;;20.27;;
31284;SDS011;56605;51.516;6.742;2022-11-20T15:28:32;46.13;;;20.95;;
31284;SDS011;56605;51.516;6.742;2022-11-20T15:30:59;45.50;;;20.60;;
31284;SDS011;56605;51.516;6.742;2022-11-20T15:33:27;54.50;;;23.63;;
31284;SDS011;56605;51.516;6.742;2022-11-20T15:35:52;59.60;;;25.33;;
31284;SDS011;56605;51.516;6.742;2022-11-20T15:38:17;58.05;;;24.50;;
31284;SDS011;56605;51.516;6.742;2022-11-20T15:40:43;57.42;;;23.42;;
31284;SDS011;56605;51.516;6.742;2022-11-20T15:43:08;60.73;;;25.10;;
31284;SDS011;56605;51.516;6.742;2022-11-20T15:48:17;44.63;;;19.77;;
31284;SDS011;56605;51.516;6.742;2022-11-20T15:53:22;43.90;;;19.83;;
31284;SDS011;56605;51.516;6.742;2022-11-20T15:55:47;49.20;;;20.95;;
31284;SDS011;56605;51.516;6.742;2022-11-20T15:58:13;47.33;;;21.42;;
31284;SDS011;56605;51.516;6.742;2022-11-20T16:00:38;48.23;;;20.67;;
31284;SDS011;56605;51.516;6.742;2022-11-20T16:03:04;50.97;;;20.45;;
31284;SDS011;56605;51.516;6.742;2022-11-20T16:05:29;43.55;;;21.33;;
31284;SDS011;56605;51.516;6.742;2022-11-20T16:07:56;45.15;;;21.02;;
31284;SDS011;56605;51.516;6.742;2022-11-20T16:10:22;48.83;;;21.70;;